Weather at Singapore Changi Airport

Public forecast

Using degrees Celsius for public forecast. Weather courtesy of forecast.io.

Current aviation weather report (METAR) for Singapore Changi Airport

Retrieved 2021/07/29 09:00 UTC (18 minutes ago):

WSSS 290900Z 18011KT 9999 FEW020TCU BKN300 32/22 Q1008 NOSIG

Aviation forecast (TAF) for Singapore Changi Airport

Retrieved 2021/07/29 06:20 UTC (3 hours ago):

TAF WSSS 290500Z 2906/3012 15010KT 9999 FEW015